createdAt,value
2023-07-22T00:02:18.954Z,19.16
2023-07-22T00:05:27.299Z,19.22
2023-07-22T00:08:43.315Z,19.19
2023-07-22T00:11:51.307Z,18.97
2023-07-22T00:14:59.843Z,18.94
2023-07-22T00:18:08.346Z,18.93
2023-07-22T00:21:16.858Z,18.91
2023-07-22T00:24:31.319Z,18.99
2023-07-22T00:27:47.322Z,19.05
2023-07-22T00:30:55.981Z,19.06
2023-07-22T00:34:04.383Z,19.05
2023-07-22T00:37:19.310Z,19.08
2023-07-22T00:40:27.331Z,19.12
2023-07-22T00:43:42.322Z,19.01
2023-07-22T00:46:44.982Z,19.03
2023-07-22T00:50:10.342Z,19.03
2023-07-22T00:53:12.288Z,18.98
2023-07-22T00:56:27.528Z,18.96
2023-07-22T01:03:02.401Z,18.92
2023-07-22T01:06:17.330Z,18.84
2023-07-22T01:09:19.213Z,18.87
2023-07-22T01:12:34.325Z,18.74
2023-07-22T01:15:49.336Z,18.78
2023-07-22T01:18:51.471Z,18.67
2023-07-22T01:22:11.331Z,18.73
2023-07-22T01:25:13.431Z,18.83
2023-07-22T01:28:29.353Z,18.84
2023-07-22T01:31:46.336Z,18.83
2023-07-22T01:35:01.324Z,18.81
2023-07-22T01:38:16.333Z,18.64
2023-07-22T01:41:31.335Z,18.67
2023-07-22T01:44:48.336Z,18.72
2023-07-22T01:47:56.350Z,18.75
2023-07-22T01:51:18.338Z,18.77
2023-07-22T01:54:20.297Z,18.79
2023-07-22T01:57:35.366Z,18.77
2023-07-22T02:00:37.204Z,18.83
2023-07-22T02:03:52.415Z,18.84
2023-07-22T02:07:00.931Z,18.78
2023-07-22T02:10:09.366Z,18.81
2023-07-22T02:13:17.883Z,18.72
2023-07-22T02:16:26.624Z,18.68
2023-07-22T02:19:41.345Z,18.50
2023-07-22T02:22:49.885Z,18.58
2023-07-22T02:26:04.377Z,18.56
2023-07-22T02:29:06.256Z,18.66
2023-07-22T02:32:21.373Z,18.65
2023-07-22T02:35:36.324Z,18.57
2023-07-22T02:38:44.345Z,18.60
2023-07-22T02:41:59.332Z,18.61
2023-07-22T02:45:15.349Z,18.37
2023-07-22T02:48:30.329Z,18.27
2023-07-22T02:51:38.927Z,18.27
2023-07-22T02:54:48.339Z,18.20
2023-07-22T02:58:03.350Z,18.23
2023-07-22T03:01:11.919Z,18.22
2023-07-22T03:04:26.382Z,18.30
2023-07-22T03:07:28.309Z,18.32
2023-07-22T03:10:43.351Z,18.23
2023-07-22T03:13:51.342Z,18.11
2023-07-22T03:16:59.855Z,18.10
2023-07-22T03:20:14.336Z,18.13
2023-07-22T03:23:29.361Z,18.19
2023-07-22T03:26:31.230Z,18.12
2023-07-22T03:29:46.417Z,18.12
2023-07-22T03:32:49.417Z,18.24
2023-07-22T03:36:04.377Z,18.26
2023-07-22T03:39:19.344Z,18.22
2023-07-22T03:42:27.366Z,18.03
2023-07-22T03:45:36.100Z,18.09
2023-07-22T03:48:44.381Z,18.14
2023-07-22T03:52:06.348Z,18.10
2023-07-22T03:55:15.080Z,18.25
2023-07-22T03:58:30.345Z,18.31
2023-07-22T04:01:32.316Z,18.29
2023-07-22T04:04:47.362Z,18.10
2023-07-22T04:07:49.222Z,18.17
2023-07-22T04:11:05.394Z,18.27
2023-07-22T04:14:20.405Z,18.37
2023-07-22T04:17:29.565Z,18.35
2023-07-22T04:20:44.374Z,18.42
2023-07-22T04:23:59.359Z,18.56
2023-07-22T04:27:07.939Z,18.37
2023-07-22T04:30:22.384Z,18.44
2023-07-22T04:33:31.082Z,18.64
2023-07-22T04:36:46.382Z,18.75
2023-07-22T04:40:01.413Z,18.81
2023-07-22T04:43:10.365Z,18.89
2023-07-22T04:46:18.995Z,18.91
2023-07-22T04:49:33.366Z,19.05
2023-07-22T04:52:41.384Z,19.05
2023-07-22T04:55:49.966Z,19.08
2023-07-22T04:59:04.381Z,19.13
2023-07-22T05:02:20.401Z,19.21
2023-07-22T05:05:22.339Z,19.20
2023-07-22T05:08:37.396Z,19.21
2023-07-22T05:11:39.222Z,19.22
2023-07-22T05:14:54.391Z,19.42
2023-07-22T05:18:03.070Z,19.54
2023-07-22T05:21:18.401Z,19.67
2023-07-22T05:24:27.153Z,19.65
2023-07-22T05:27:35.398Z,19.72
2023-07-22T05:30:43.956Z,19.78
2023-07-22T05:33:52.386Z,19.92
2023-07-22T05:37:01.001Z,20.01
2023-07-22T05:40:09.404Z,20.15
2023-07-22T05:43:18.031Z,20.09
2023-07-22T05:46:33.412Z,20.17
2023-07-22T05:49:48.631Z,20.13
2023-07-22T05:53:03.405Z,20.21
2023-07-22T05:56:11.380Z,20.17
2023-07-22T05:59:26.433Z,20.24
2023-07-22T06:02:35.441Z,20.26
2023-07-22T06:05:50.438Z,20.24
2023-07-22T06:09:05.459Z,20.38
2023-07-22T06:12:14.406Z,20.40
2023-07-22T06:15:23.234Z,20.43
2023-07-22T06:18:38.409Z,20.72
2023-07-22T06:21:47.159Z,20.76
2023-07-22T06:24:55.488Z,20.84
2023-07-22T06:28:04.216Z,20.90
2023-07-22T06:31:12.455Z,21.03
2023-07-22T06:34:27.404Z,21.00
2023-07-22T06:37:35.486Z,20.96
2023-07-22T06:40:43.905Z,21.24
2023-07-22T06:43:52.406Z,21.19
2023-07-22T06:47:01.036Z,21.22
2023-07-22T06:50:15.448Z,21.50
2023-07-22T06:53:32.400Z,21.62
2023-07-22T06:56:40.411Z,21.65
2023-07-22T06:59:55.512Z,21.90
2023-07-22T07:02:57.399Z,22.00
2023-07-22T07:06:12.410Z,22.25
2023-07-22T07:09:20.966Z,22.37
2023-07-22T07:12:35.466Z,22.64
2023-07-22T07:15:55.562Z,22.96
2023-07-22T07:18:57.603Z,23.12
2023-07-22T07:22:12.383Z,23.21
2023-07-22T07:25:27.445Z,23.04
2023-07-22T07:28:36.080Z,23.27
2023-07-22T07:31:51.429Z,23.65
2023-07-22T07:35:07.359Z,24.14
2023-07-22T07:38:15.406Z,24.48
2023-07-22T07:41:23.988Z,24.30
2023-07-22T07:44:40.418Z,24.43
2023-07-22T07:47:55.440Z,24.50
2023-07-22T07:51:17.414Z,24.77
2023-07-22T07:54:19.385Z,24.93
2023-07-22T07:57:34.423Z,25.09
2023-07-22T08:00:42.975Z,24.93
2023-07-22T08:03:52.470Z,25.10
2023-07-22T08:07:07.423Z,24.89
2023-07-22T08:10:09.536Z,25.42
2023-07-22T08:13:24.406Z,25.49
2023-07-22T08:16:32.469Z,25.55
2023-07-22T08:19:41.029Z,25.36
2023-07-22T08:22:55.527Z,25.76
2023-07-22T08:26:11.480Z,25.90
2023-07-22T08:29:13.371Z,26.01
2023-07-22T08:32:28.459Z,26.10
2023-07-22T08:35:37.422Z,26.33
2023-07-22T08:38:45.469Z,26.70
2023-07-22T08:42:02.463Z,26.32
2023-07-22T08:45:11.653Z,26.65
2023-07-22T08:48:22.447Z,27.18
2023-07-22T08:51:38.766Z,26.81
2023-07-22T08:54:54.488Z,26.96
2023-07-22T08:57:57.350Z,27.06
2023-07-22T09:01:13.523Z,27.22
2023-07-22T09:04:30.419Z,26.86
2023-07-22T09:07:39.447Z,27.17
2023-07-22T09:10:49.162Z,27.58
2023-07-22T09:14:00.439Z,27.72
2023-07-22T09:17:15.452Z,27.94
2023-07-22T09:20:30.476Z,27.83
2023-07-22T09:23:46.472Z,28.09
2023-07-22T09:26:55.488Z,28.19
2023-07-22T09:30:30.446Z,28.13
2023-07-22T09:33:45.459Z,28.19
2023-07-22T09:36:52.222Z,28.38
2023-07-22T09:40:07.474Z,28.00
2023-07-22T09:43:12.954Z,27.98
2023-07-22T09:46:27.940Z,27.90
2023-07-22T09:49:36.454Z,28.23
2023-07-22T09:53:02.847Z,28.28
2023-07-22T09:56:17.464Z,27.54
2023-07-22T09:59:26.486Z,28.13
2023-07-22T10:02:42.548Z,28.59
2023-07-22T10:05:47.521Z,28.67
2023-07-22T10:09:12.485Z,28.90
2023-07-22T10:12:21.479Z,28.79
2023-07-22T10:15:38.500Z,28.64
2023-07-22T10:18:55.478Z,28.47
2023-07-22T10:22:11.526Z,28.51
2023-07-22T10:25:17.106Z,29.05
2023-07-22T10:28:31.503Z,29.08
2023-07-22T10:31:46.563Z,29.20
2023-07-22T10:35:01.462Z,28.94
2023-07-22T10:38:12.221Z,28.89
2023-07-22T10:41:23.499Z,29.27
2023-07-22T10:44:36.710Z,29.34
2023-07-22T10:48:12.491Z,29.17
2023-07-22T10:51:20.784Z,28.97
2023-07-22T10:54:40.519Z,29.16
2023-07-22T10:58:01.512Z,29.16
2023-07-22T11:01:34.685Z,28.62
2023-07-22T11:04:51.232Z,28.66
2023-07-22T11:08:14.768Z,29.28
2023-07-22T11:11:46.004Z,29.37
2023-07-22T11:15:10.505Z,29.09
2023-07-22T11:18:22.068Z,29.45
2023-07-22T11:21:30.513Z,29.29
2023-07-22T11:24:45.545Z,29.56
2023-07-22T11:28:01.603Z,29.75
2023-07-22T11:31:10.511Z,29.70
2023-07-22T11:34:21.717Z,29.89
2023-07-22T11:37:36.509Z,30.03
2023-07-22T11:40:54.555Z,29.53
2023-07-22T11:44:05.132Z,29.43
2023-07-22T11:47:15.519Z,29.58
2023-07-22T11:50:41.521Z,29.65
2023-07-22T11:53:56.019Z,29.90
2023-07-22T11:57:04.551Z,28.61
2023-07-22T12:00:13.443Z,28.56
2023-07-22T12:03:28.542Z,28.23
2023-07-22T12:06:37.527Z,28.54
2023-07-22T12:09:49.941Z,27.87
2023-07-22T12:12:58.526Z,28.72
2023-07-22T12:16:13.562Z,28.78
2023-07-22T12:19:22.537Z,29.02
2023-07-22T12:22:31.096Z,29.30
2023-07-22T12:25:45.508Z,29.33
2023-07-22T12:29:00.558Z,29.36
2023-07-22T12:32:09.513Z,29.00
2023-07-22T12:35:24.542Z,28.74
2023-07-22T12:38:33.676Z,28.59
2023-07-22T12:41:48.546Z,28.56
2023-07-22T12:44:57.593Z,28.97
2023-07-22T12:48:06.447Z,29.38
2023-07-22T12:51:29.182Z,29.23
2023-07-22T12:54:38.136Z,29.16
2023-07-22T12:57:46.530Z,29.16
2023-07-22T13:00:55.241Z,29.05
2023-07-22T13:04:10.533Z,28.48
2023-07-22T13:07:19.580Z,28.84
2023-07-22T13:10:29.285Z,28.93
2023-07-22T13:13:37.619Z,29.15
2023-07-22T13:16:52.586Z,28.93
2023-07-22T13:20:07.538Z,29.31
2023-07-22T13:23:15.561Z,29.04
2023-07-22T13:26:30.536Z,29.13
2023-07-22T13:29:39.172Z,28.82
2023-07-22T13:32:47.672Z,29.31
2023-07-22T13:35:57.749Z,29.01
2023-07-22T13:39:06.561Z,29.02
2023-07-22T13:42:15.115Z,28.60
2023-07-22T13:45:29.529Z,28.67
2023-07-22T13:48:44.553Z,28.84
2023-07-22T13:52:09.553Z,28.60
2023-07-22T13:55:24.569Z,28.71
2023-07-22T13:58:33.168Z,28.72
2023-07-22T14:01:41.582Z,29.08
2023-07-22T14:04:52.130Z,29.21
2023-07-22T14:08:06.598Z,28.75
2023-07-22T14:11:21.550Z,28.92
2023-07-22T14:14:36.575Z,28.73
2023-07-22T14:17:45.168Z,28.75
2023-07-22T14:21:00.584Z,28.88
2023-07-22T14:24:02.444Z,28.94
2023-07-22T14:27:17.617Z,28.49
2023-07-22T14:30:32.559Z,28.45
2023-07-22T14:33:41.595Z,28.43
2023-07-22T14:36:56.561Z,28.30
2023-07-22T14:39:58.593Z,28.34
2023-07-22T14:43:13.576Z,28.48
2023-07-22T14:46:22.169Z,28.51
2023-07-22T14:49:30.589Z,28.17
2023-07-22T14:52:45.898Z,28.42
2023-07-22T14:55:54.580Z,28.66
2023-07-22T14:59:03.219Z,28.33
2023-07-22T15:02:17.578Z,28.39
2023-07-22T15:05:25.583Z,28.51
2023-07-22T15:08:34.307Z,28.45
2023-07-22T15:11:49.598Z,28.41
2023-07-22T15:15:04.604Z,28.63
2023-07-22T15:18:06.577Z,28.73
2023-07-22T15:21:22.986Z,28.47
2023-07-22T15:24:37.653Z,28.50
2023-07-22T15:27:48.759Z,28.57
2023-07-22T15:31:03.765Z,28.30
2023-07-22T15:34:12.622Z,28.25
2023-07-22T15:37:21.182Z,28.12
2023-07-22T15:40:29.600Z,28.07
2023-07-22T15:43:38.230Z,28.12
2023-07-22T15:46:52.658Z,28.32
2023-07-22T15:50:01.228Z,28.12
2023-07-22T15:53:23.609Z,28.14
2023-07-22T15:56:25.709Z,27.98
2023-07-22T15:59:40.687Z,28.01
2023-07-22T16:02:48.664Z,27.82
2023-07-22T16:05:57.251Z,27.55
2023-07-22T16:09:05.596Z,27.47
2023-07-22T16:12:14.159Z,27.23
2023-07-22T16:15:22.598Z,27.23
2023-07-22T16:18:31.507Z,27.14
2023-07-22T16:21:46.618Z,27.09
2023-07-22T16:24:54.612Z,27.17
2023-07-22T16:28:09.601Z,27.21
2023-07-22T16:31:11.593Z,27.10
2023-07-22T16:34:26.622Z,27.06
2023-07-22T16:37:28.560Z,27.03
2023-07-22T16:40:43.647Z,27.03
2023-07-22T16:44:05.653Z,27.08
2023-07-22T16:47:20.651Z,27.05
2023-07-22T16:50:35.685Z,27.03
2023-07-22T16:53:50.696Z,26.97
2023-07-22T16:56:59.622Z,26.82
2023-07-22T17:00:15.626Z,26.88
2023-07-22T17:03:30.797Z,26.84
2023-07-22T17:06:32.736Z,26.90
2023-07-22T17:09:47.657Z,26.79
2023-07-22T17:13:02.626Z,26.81
2023-07-22T17:16:04.883Z,26.79
2023-07-22T17:19:19.701Z,26.79
2023-07-22T17:22:34.642Z,26.75
2023-07-22T17:25:43.294Z,26.70
2023-07-22T17:28:59.644Z,26.67
2023-07-22T17:32:08.677Z,26.62
2023-07-22T17:35:17.707Z,26.63
2023-07-22T17:38:32.626Z,26.42
2023-07-22T17:41:47.653Z,26.47
2023-07-22T17:45:02.663Z,26.42
2023-07-22T17:48:17.817Z,26.36
2023-07-22T17:51:32.662Z,26.39
2023-07-22T17:54:47.669Z,26.26
2023-07-22T17:58:02.893Z,26.26
2023-07-22T18:01:04.907Z,26.20
2023-07-22T18:04:19.655Z,26.15
2023-07-22T18:07:34.707Z,26.18
2023-07-22T18:10:50.182Z,26.17
2023-07-22T18:14:05.701Z,26.10
2023-07-22T18:17:20.676Z,26.01
2023-07-22T18:20:29.727Z,26.05
2023-07-22T18:23:45.695Z,25.97
2023-07-22T18:26:54.677Z,25.91
2023-07-22T18:30:10.675Z,25.76
2023-07-22T18:33:12.889Z,25.72
2023-07-22T18:36:27.662Z,25.69
2023-07-22T18:39:29.856Z,25.59
2023-07-22T18:42:45.660Z,25.47
2023-07-22T18:45:47.960Z,25.52
2023-07-22T18:49:02.672Z,25.44
2023-07-22T18:52:24.683Z,25.41
2023-07-22T18:55:33.453Z,25.43
2023-07-22T18:58:49.684Z,25.43
2023-07-22T19:02:00.099Z,25.37
2023-07-22T19:05:08.660Z,25.24
2023-07-22T19:08:23.749Z,25.28
2023-07-22T19:11:32.712Z,25.23
2023-07-22T19:14:40.696Z,25.18
2023-07-22T19:17:49.280Z,25.11
2023-07-22T19:21:08.689Z,25.14
2023-07-22T19:24:23.710Z,25.03
2023-07-22T19:27:38.793Z,24.93
2023-07-22T19:30:47.683Z,24.69
2023-07-22T19:34:02.717Z,24.67
2023-07-22T19:37:17.692Z,24.53
2023-07-22T19:40:30.393Z,24.58
2023-07-22T19:43:38.677Z,24.54
2023-07-22T19:46:47.222Z,24.43
2023-07-22T19:49:55.682Z,24.24
2023-07-22T19:53:17.708Z,24.00
2023-07-22T19:56:26.498Z,23.87
2023-07-22T19:59:35.741Z,23.90
2023-07-22T20:02:51.785Z,23.91
2023-07-22T20:06:01.711Z,23.97
2023-07-22T20:09:17.706Z,23.92
2023-07-22T20:12:25.704Z,23.71
2023-07-22T20:15:44.763Z,23.80
2023-07-22T20:18:53.729Z,23.81
2023-07-22T20:22:02.518Z,23.61
2023-07-22T20:25:11.716Z,23.60
2023-07-22T20:28:20.475Z,23.67
2023-07-22T20:31:36.772Z,23.72
2023-07-22T20:34:39.054Z,23.66
2023-07-22T20:37:53.703Z,23.70
2023-07-22T20:41:12.717Z,23.71
2023-07-22T20:44:21.715Z,23.84
2023-07-22T20:47:30.697Z,23.86
2023-07-22T20:50:40.714Z,23.86
2023-07-22T20:53:56.224Z,23.88
2023-07-22T20:57:11.743Z,23.83
2023-07-22T21:00:20.473Z,23.85
2023-07-22T21:03:35.776Z,23.78
2023-07-22T21:06:43.725Z,23.71
2023-07-22T21:09:52.292Z,23.53
2023-07-22T21:13:00.715Z,23.53
2023-07-22T21:16:09.372Z,23.53
2023-07-22T21:19:17.710Z,23.48
2023-07-22T21:22:32.722Z,23.55
2023-07-22T21:25:41.254Z,23.58
2023-07-22T21:28:55.718Z,23.56
2023-07-22T21:32:03.747Z,23.54
2023-07-22T21:35:19.756Z,23.47
2023-07-22T21:38:28.742Z,23.38
2023-07-22T21:41:37.232Z,23.20
2023-07-22T21:44:54.760Z,23.16
2023-07-22T21:48:09.754Z,23.13
2023-07-22T21:51:31.731Z,23.10
2023-07-22T21:54:39.799Z,23.08
2023-07-22T21:57:48.279Z,23.01
2023-07-22T22:01:02.786Z,22.94
2023-07-22T22:04:04.823Z,22.88
2023-07-22T22:07:19.706Z,22.93
2023-07-22T22:10:21.627Z,22.90
2023-07-22T22:13:36.729Z,22.93
2023-07-22T22:16:51.781Z,22.84
2023-07-22T22:19:53.719Z,22.76
2023-07-22T22:23:08.760Z,22.81
2023-07-22T22:26:10.688Z,22.79
2023-07-22T22:29:25.755Z,22.80
2023-07-22T22:32:52.870Z,22.88
2023-07-22T22:36:01.305Z,23.00
2023-07-22T22:39:09.733Z,23.12
2023-07-22T22:42:24.747Z,23.21
2023-07-22T22:45:33.732Z,23.27
2023-07-22T22:48:48.733Z,23.29
2023-07-22T22:52:06.102Z,23.26
2023-07-22T22:55:14.754Z,23.15
2023-07-22T22:58:23.310Z,23.02
2023-07-22T23:01:37.772Z,22.95
2023-07-22T23:04:52.782Z,22.90
2023-07-22T23:08:01.264Z,22.38
2023-07-22T23:11:09.730Z,22.35
2023-07-22T23:14:24.754Z,22.30
2023-07-22T23:17:39.872Z,22.15
2023-07-22T23:20:41.842Z,22.00
2023-07-22T23:23:56.761Z,21.86
2023-07-22T23:27:05.682Z,21.79
2023-07-22T23:30:14.740Z,21.74
2023-07-22T23:33:29.767Z,21.79
2023-07-22T23:36:38.328Z,21.78
2023-07-22T23:39:46.772Z,21.61
2023-07-22T23:43:01.763Z,21.53
2023-07-22T23:46:09.816Z,21.47
2023-07-22T23:49:24.775Z,21.39
2023-07-22T23:52:40.020Z,21.11
2023-07-22T23:55:48.770Z,21.27
2023-07-22T23:59:03.797Z,21.33
